Time;durP1;ratioP1;P1;durP2;ratioP2;P2;SDS_P1;SDS_P2;PMS_P1;PMS_P2;Temp;Humidity;BMP_temperature;BMP_pressure;BME280_temperature;BME280_humidity;BME280_pressure;Samples;Min_cycle;Max_cycle;Signal;HPM_P1;HPM_P2
2024/03/04 00:01:39;;;;;;;14.27;6.35;;;;;;;9.23;100.00;100591.34;5114804;28;20403;-69
2024/03/04 00:04:27;;;;;;;13.23;5.95;;;;;;;9.20;100.00;100594.59;5113864;28;20096;-69
2024/03/04 00:07:17;;;;;;;10.63;6.13;;;;;;;9.18;100.00;100604.91;5112805;28;20052;-68
2024/03/04 00:10:07;;;;;;;13.07;5.80;;;;;;;9.16;100.00;100597.03;5074364;28;20154;-68
2024/03/04 00:12:55;;;;;;;11.45;5.63;;;;;;;9.09;100.00;100610.06;5062766;28;20047;-67
2024/03/04 00:15:44;;;;;;;11.98;5.35;;;;;;;9.03;100.00;100605.66;5102733;27;20046;-69
2024/03/04 00:18:32;;;;;;;12.23;5.32;;;;;;;8.97;100.00;100617.56;5089793;27;20065;-69
2024/03/04 00:21:20;;;;;;;11.70;5.47;;;;;;;8.89;100.00;100618.06;5081451;28;20048;-69
2024/03/04 00:24:08;;;;;;;12.45;5.25;;;;;;;8.89;100.00;100616.16;5063843;28;20162;-69
2024/03/04 00:26:56;;;;;;;12.48;5.55;;;;;;;8.91;100.00;100624.88;5064461;28;20386;-68
2024/03/04 00:29:45;;;;;;;10.60;5.18;;;;;;;8.93;100.00;100625.44;5097014;28;20500;-68
2024/03/04 00:32:33;;;;;;;10.57;5.47;;;;;;;8.92;100.00;100626.53;5077765;28;20052;-69
2024/03/04 00:35:21;;;;;;;13.77;5.53;;;;;;;8.91;100.00;100629.50;5063706;28;20075;-69
2024/03/04 00:38:09;;;;;;;12.55;5.30;;;;;;;8.87;100.00;100634.63;5091499;28;20556;-69
2024/03/04 00:40:57;;;;;;;14.50;5.60;;;;;;;8.76;100.00;100642.97;5099527;28;20572;-68
2024/03/04 00:43:45;;;;;;;12.90;5.50;;;;;;;8.70;100.00;100640.19;5111545;28;20051;-70
2024/03/04 00:46:32;;;;;;;12.48;5.18;;;;;;;8.71;100.00;100646.47;5110939;28;20051;-68
2024/03/04 00:49:21;;;;;;;15.73;5.55;;;;;;;8.78;100.00;100651.66;5085608;28;20130;-68
2024/03/04 00:52:09;;;;;;;11.88;5.28;;;;;;;8.82;100.00;100655.50;5091154;28;20059;-70
2024/03/04 00:54:57;;;;;;;11.63;5.43;;;;;;;8.73;100.00;100663.31;5129633;27;20051;-68
2024/03/04 00:57:45;;;;;;;14.63;5.85;;;;;;;8.68;100.00;100661.41;5131498;27;20415;-68
2024/03/04 01:00:33;;;;;;;12.95;5.93;;;;;;;8.62;100.00;100653.47;5123967;27;20110;-68
2024/03/04 01:03:21;;;;;;;13.80;5.22;;;;;;;8.65;100.00;100658.38;5082167;28;20083;-68
2024/03/04 01:06:09;;;;;;;10.13;4.65;;;;;;;8.64;100.00;100652.13;5105737;27;20126;-68
2024/03/04 01:08:57;;;;;;;11.93;4.80;;;;;;;8.64;100.00;100664.88;5111127;27;20062;-67
2024/03/04 01:11:45;;;;;;;15.63;5.20;;;;;;;8.65;100.00;100663.78;5095871;28;20035;-69
2024/03/04 01:14:36;;;;;;;11.13;5.05;;;;;;;8.62;100.00;100675.19;5096447;28;20036;-69
2024/03/04 01:17:24;;;;;;;11.90;4.90;;;;;;;8.60;100.00;100672.72;5069042;28;20192;-69
2024/03/04 01:20:14;;;;;;;12.32;5.07;;;;;;;8.56;100.00;100676.22;5094015;28;20172;-68
2024/03/04 01:23:02;;;;;;;13.77;5.00;;;;;;;8.51;100.00;100675.09;5111856;28;20052;-68
2024/03/04 01:25:50;;;;;;;11.30;5.10;;;;;;;8.50;100.00;100689.75;5083147;28;20548;-68
2024/03/04 01:28:38;;;;;;;10.77;4.78;;;;;;;8.53;100.00;100691.94;5113045;27;20076;-68
2024/03/04 01:31:26;;;;;;;16.35;5.53;;;;;;;8.52;100.00;100693.03;5097605;28;20126;-68
2024/03/04 01:34:16;;;;;;;15.02;4.70;;;;;;;8.50;100.00;100695.16;5110755;28;20051;-68
2024/03/04 01:37:07;;;;;;;14.27;5.15;;;;;;;8.56;100.00;100719.66;5095721;28;20044;-68
2024/03/04 01:39:56;;;;;;;11.80;5.13;;;;;;;8.60;100.00;100713.47;5083220;28;20157;-68
2024/03/04 01:42:44;;;;;;;11.18;4.72;;;;;;;8.65;100.00;100712.69;5100895;28;20044;-68
2024/03/04 01:45:33;;;;;;;12.30;4.95;;;;;;;8.67;100.00;100710.53;5112641;28;20100;-68
2024/03/04 01:48:22;;;;;;;13.43;4.60;;;;;;;8.69;100.00;100708.38;5082447;28;20482;-68
2024/03/04 01:51:10;;;;;;;13.18;4.88;;;;;;;8.71;100.00;100711.66;5080076;28;20517;-68
2024/03/04 01:53:59;;;;;;;12.48;4.82;;;;;;;8.74;100.00;100719.28;5095860;28;20048;-68
2024/03/04 01:56:47;;;;;;;10.82;4.50;;;;;;;8.73;100.00;100721.19;5112197;28;20135;-68
2024/03/04 01:59:38;;;;;;;13.38;4.90;;;;;;;8.75;100.00;100726.34;5090957;28;20050;-68
2024/03/04 02:02:29;;;;;;;9.85;4.70;;;;;;;8.77;100.00;100737.78;5072798;28;20076;-68
2024/03/04 02:05:17;;;;;;;12.25;5.28;;;;;;;8.75;100.00;100745.38;5065897;28;20075;-68
2024/03/04 02:08:06;;;;;;;11.88;4.60;;;;;;;8.73;100.00;100742.94;5092070;27;20176;-68
2024/03/04 02:10:54;;;;;;;13.80;4.80;;;;;;;8.72;100.00;100740.47;5098218;28;20054;-68
2024/03/04 02:13:42;;;;;;;14.90;5.25;;;;;;;8.68;100.00;100740.16;5085694;28;20130;-69
2024/03/04 02:16:30;;;;;;;12.43;4.85;;;;;;;8.64;100.00;100733.59;5115070;28;20057;-69
2024/03/04 02:19:18;;;;;;;10.65;4.90;;;;;;;8.68;100.00;100728.47;5084682;28;20052;-68
2024/03/04 02:22:07;;;;;;;13.70;5.03;;;;;;;8.70;100.00;100739.88;5084537;28;20056;-69
2024/03/04 02:24:55;;;;;;;11.13;4.60;;;;;;;8.69;100.00;100754.56;5064757;28;20130;-69
2024/03/04 02:27:43;;;;;;;14.70;4.93;;;;;;;8.62;100.00;100745.78;5078419;28;20040;-70
2024/03/04 02:30:33;;;;;;;15.35;5.03;;;;;;;8.61;100.00;100753.13;5109253;28;20107;-69
2024/03/04 02:33:21;;;;;;;13.50;4.97;;;;;;;8.62;100.00;100751.22;5084006;28;20126;-69
2024/03/04 02:36:10;;;;;;;13.32;5.10;;;;;;;8.57;100.00;100753.91;5101620;28;20505;-69
2024/03/04 02:38:58;;;;;;;12.90;4.75;;;;;;;8.52;100.00;100760.91;5099786;28;20048;-69
2024/03/04 02:41:46;;;;;;;10.73;4.93;;;;;;;8.53;100.00;100761.72;5086646;28;20059;-69
2024/03/04 02:44:34;;;;;;;12.82;4.80;;;;;;;8.47;100.00;100760.84;5114077;28;20542;-69
2024/03/04 02:47:22;;;;;;;16.52;5.50;;;;;;;8.43;100.00;100759.72;5105081;27;20497;-69
2024/03/04 02:50:10;;;;;;;13.75;5.00;;;;;;;8.45;100.00;100763.00;5126386;27;20047;-69
2024/03/04 02:52:58;;;;;;;12.75;4.72;;;;;;;8.45;100.00;100763.00;5120067;27;20378;-68
2024/03/04 02:55:46;;;;;;;12.05;4.88;;;;;;;8.48;100.00;100775.25;5127962;27;20403;-69
2024/03/04 02:58:34;;;;;;;15.48;6.00;;;;;;;8.47;100.00;100771.72;5115595;27;20134;-69
2024/03/04 03:01:22;;;;;;;11.07;4.78;;;;;;;8.51;100.00;100778.28;5103672;27;20044;-70
2024/03/04 03:04:10;;;;;;;14.43;5.47;;;;;;;8.56;100.00;100782.13;5097589;28;20504;-69
2024/03/04 03:06:59;;;;;;;13.73;5.00;;;;;;;8.55;100.00;100788.63;5113133;27;20193;-69
2024/03/04 03:09:47;;;;;;;9.95;4.88;;;;;;;8.49;100.00;100791.28;5114018;27;20047;-69
2024/03/04 03:12:34;;;;;;;10.25;4.75;;;;;;;8.51;100.00;100796.44;5113284;27;20134;-69
2024/03/04 03:15:22;;;;;;;11.45;4.80;;;;;;;8.50;100.00;100803.78;5113823;28;20426;-70
2024/03/04 03:18:13;;;;;;;9.57;4.65;;;;;;;8.52;100.00;100807.06;5078337;28;20547;-69
2024/03/04 03:21:01;;;;;;;12.55;5.32;;;;;;;8.55;100.00;100804.94;5094491;27;20039;-69
2024/03/04 03:23:50;;;;;;;15.02;5.43;;;;;;;8.55;100.00;100808.47;5133978;27;20176;-69
2024/03/04 03:26:38;;;;;;;10.13;5.00;;;;;;;8.49;100.00;100807.59;5134010;27;20058;-70
2024/03/04 03:29:26;;;;;;;14.10;5.50;;;;;;;8.43;100.00;100810.50;5113914;27;20512;-69
2024/03/04 03:32:14;;;;;;;10.57;5.13;;;;;;;8.40;100.00;100809.09;5097977;28;20054;-68
2024/03/04 03:35:03;;;;;;;9.85;5.05;;;;;;;8.39;100.00;100807.41;5096931;28;20411;-69
2024/03/04 03:37:51;;;;;;;10.43;4.90;;;;;;;8.41;100.00;100820.78;5112947;27;20044;-69
2024/03/04 03:40:39;;;;;;;11.75;4.90;;;;;;;8.41;100.00;100827.03;5119504;27;20062;-68
2024/03/04 03:43:27;;;;;;;9.38;4.63;;;;;;;8.42;100.00;100827.84;5134043;27;20058;-69
2024/03/04 03:46:16;;;;;;;11.27;4.40;;;;;;;8.37;100.00;100825.03;5109903;28;20036;-69
2024/03/04 03:49:04;;;;;;;8.07;4.18;;;;;;;8.33;100.00;100824.75;5113499;27;20043;-69
2024/03/04 03:51:52;;;;;;;9.30;4.05;;;;;;;8.36;100.00;100821.50;5099683;28;20081;-68
2024/03/04 03:54:40;;;;;;;12.13;4.53;;;;;;;8.38;100.00;100829.41;5098215;28;20042;-68
2024/03/04 03:57:27;;;;;;;10.15;4.90;;;;;;;8.33;100.00;100841.03;5083317;28;20048;-69
2024/03/04 04:00:33;;;;;;;10.50;4.70;;;;;;;8.29;100.00;100840.69;5124530;28;20047;-65
2024/03/04 04:03:21;;;;;;;9.93;4.45;;;;;;;8.28;100.00;100849.94;5140237;27;20045;-65
2024/03/04 04:06:09;;;;;;;9.45;4.50;;;;;;;8.27;100.00;100836.59;5135394;27;20065;-68
2024/03/04 04:08:57;;;;;;;13.15;4.68;;;;;;;8.26;100.00;100840.41;5107299;28;20051;-69
2024/03/04 04:11:45;;;;;;;12.30;4.75;;;;;;;8.25;100.00;100839.56;5101637;28;20044;-68
2024/03/04 04:14:34;;;;;;;10.68;4.47;;;;;;;8.23;100.00;100844.44;5083744;28;20042;-68
2024/03/04 04:17:22;;;;;;;11.30;4.72;;;;;;;8.22;100.00;100842.78;5112405;28;20419;-68
2024/03/04 04:20:11;;;;;;;11.05;4.63;;;;;;;8.15;100.00;100841.31;5106832;28;20043;-68
2024/03/04 04:22:59;;;;;;;10.85;4.10;;;;;;;8.14;100.00;100848.66;5076926;28;20442;-68
2024/03/04 04:25:47;;;;;;;11.90;4.53;;;;;;;8.17;100.00;100845.44;5115244;27;20100;-68
2024/03/04 04:28:35;;;;;;;8.90;3.90;;;;;;;8.15;100.00;100854.91;5107213;28;20134;-68
2024/03/04 04:31:24;;;;;;;11.88;4.07;;;;;;;8.10;100.00;100858.34;5092157;28;20056;-68
2024/03/04 04:34:12;;;;;;;6.80;3.47;;;;;;;8.09;100.00;100868.41;5100921;27;20051;-69
2024/03/04 04:37:00;;;;;;;8.13;3.78;;;;;;;8.07;100.00;100865.09;5123219;27;20117;-68
2024/03/04 04:39:48;;;;;;;9.95;3.90;;;;;;;8.12;100.00;100867.06;5098496;27;20410;-68
2024/03/04 04:42:36;;;;;;;5.78;3.10;;;;;;;8.16;100.00;100872.84;5096650;28;20043;-68
2024/03/04 04:45:26;;;;;;;10.02;3.63;;;;;;;8.17;100.00;100871.75;5110602;28;20086;-69
2024/03/04 04:48:14;;;;;;;8.95;3.45;;;;;;;8.15;100.00;100876.59;5062748;28;20055;-68
2024/03/04 04:51:02;;;;;;;8.50;3.45;;;;;;;8.14;100.00;100881.22;5093127;28;20058;-68
2024/03/04 04:53:50;;;;;;;6.93;3.03;;;;;;;8.15;100.00;100885.56;5063504;28;20127;-68
2024/03/04 04:56:38;;;;;;;6.63;3.72;;;;;;;8.14;100.00;100896.69;5090731;28;20189;-68
2024/03/04 04:59:26;;;;;;;9.18;3.50;;;;;;;8.09;100.00;100906.38;5092543;28;20119;-68
2024/03/04 05:02:14;;;;;;;9.52;3.45;;;;;;;8.10;100.00;100912.63;5099140;28;20181;-69
2024/03/04 05:05:02;;;;;;;9.10;3.58;;;;;;;8.10;100.00;100909.91;5108337;28;20098;-69
2024/03/04 05:07:50;;;;;;;6.70;3.20;;;;;;;8.10;100.00;100908.06;5090723;28;20127;-68
2024/03/04 05:10:39;;;;;;;7.40;3.33;;;;;;;8.16;100.00;100911.66;5095083;28;20407;-67
2024/03/04 05:13:27;;;;;;;7.10;3.42;;;;;;;8.17;100.00;100907.84;5095421;28;20052;-68
2024/03/04 05:16:15;;;;;;;7.55;3.38;;;;;;;8.20;100.00;100914.66;5077215;28;20043;-68
2024/03/04 05:19:03;;;;;;;5.65;3.40;;;;;;;8.22;100.00;100920.69;5091420;28;20508;-67
2024/03/04 05:21:51;;;;;;;6.80;3.40;;;;;;;8.20;100.00;100918.22;5106873;28;20044;-68
2024/03/04 05:24:40;;;;;;;5.97;3.42;;;;;;;8.19;100.00;100921.19;5090231;28;20519;-69
2024/03/04 05:27:32;;;;;;;6.13;3.58;;;;;;;8.21;100.00;100925.28;5067208;27;20047;-69
2024/03/04 05:30:20;;;;;;;5.85;3.28;;;;;;;8.19;100.00;100926.63;5091772;28;20048;-68
2024/03/04 05:33:08;;;;;;;10.25;3.88;;;;;;;8.15;100.00;100930.88;5094672;28;20044;-68
2024/03/04 05:36:04;;;;;;;8.85;3.65;;;;;;;8.14;100.00;100935.50;5095064;28;20040;-68
2024/03/04 05:38:52;;;;;;;9.30;3.58;;;;;;;8.15;100.00;100925.47;5080598;28;20040;-68
2024/03/04 05:41:40;;;;;;;6.72;3.40;;;;;;;8.16;100.00;100933.34;5089005;28;20059;-68
2024/03/04 05:44:28;;;;;;;8.27;3.17;;;;;;;8.14;100.00;100934.69;5108823;28;20496;-68
2024/03/04 05:47:16;;;;;;;11.40;3.65;;;;;;;8.15;100.00;100942.56;5110219;28;20546;-68
2024/03/04 05:50:05;;;;;;;8.55;3.60;;;;;;;8.16;100.00;100943.41;5078863;28;20540;-68
2024/03/04 05:52:53;;;;;;;8.07;3.33;;;;;;;8.17;100.00;100945.84;5094747;28;20402;-68
2024/03/04 05:55:42;;;;;;;7.75;3.33;;;;;;;8.18;100.00;100943.94;5089874;28;20522;-69
2024/03/04 05:58:30;;;;;;;7.07;3.08;;;;;;;8.19;100.00;100948.31;5089477;28;20403;-68
2024/03/04 06:01:19;;;;;;;8.38;3.58;;;;;;;8.21;100.00;100952.44;5090245;28;20495;-68
2024/03/04 06:04:07;;;;;;;9.38;3.47;;;;;;;8.23;100.00;100960.34;5095682;28;20505;-68
2024/03/04 06:06:55;;;;;;;8.32;3.58;;;;;;;8.21;100.00;100967.91;5111225;28;20050;-67
2024/03/04 06:09:43;;;;;;;8.25;3.10;;;;;;;8.20;100.00;100971.66;5095996;28;20562;-67
2024/03/04 06:12:31;;;;;;;12.07;3.10;;;;;;;8.19;100.00;100964.59;5062481;28;20048;-68
2024/03/04 06:15:21;;;;;;;6.20;3.00;;;;;;;8.18;100.00;100969.22;5074568;28;20174;-68
2024/03/04 06:18:09;;;;;;;7.63;2.97;;;;;;;8.17;100.00;100974.88;5088100;28;20096;-68
2024/03/04 06:20:57;;;;;;;8.68;2.95;;;;;;;8.11;100.00;100982.13;5110498;28;20055;-68
2024/03/04 06:23:45;;;;;;;7.80;2.90;;;;;;;8.05;100.00;100986.66;5076606;28;20048;-66
2024/03/04 06:26:33;;;;;;;8.13;3.38;;;;;;;8.03;100.00;100983.38;5090728;28;20134;-68
2024/03/04 06:29:21;;;;;;;11.15;3.53;;;;;;;7.97;100.00;100991.69;5082187;28;20097;-67
2024/03/04 06:32:08;;;;;;;8.45;3.45;;;;;;;7.95;100.00;100981.06;5110240;28;20044;-67
2024/03/04 06:34:58;;;;;;;9.27;3.63;;;;;;;7.94;100.00;100987.56;5109451;28;20043;-68
2024/03/04 06:37:46;;;;;;;8.50;3.15;;;;;;;7.94;100.00;100989.44;5111117;28;20127;-67
2024/03/04 06:40:35;;;;;;;9.27;3.00;;;;;;;7.95;100.00;100991.91;5115176;28;20580;-68
2024/03/04 06:43:23;;;;;;;9.43;3.22;;;;;;;7.97;100.00;100995.22;4047738;28;10001247;-68
2024/03/04 06:46:11;;;;;;;9.73;3.42;;;;;;;7.97;100.00;100988.97;5072773;28;20040;-69
2024/03/04 06:49:00;;;;;;;11.20;3.38;;;;;;;7.95;100.00;100996.53;5093634;27;20392;-69
2024/03/04 06:51:48;;;;;;;8.07;4.10;;;;;;;7.93;100.00;100990.50;5081854;28;20511;-68
2024/03/04 06:54:36;;;;;;;10.43;3.80;;;;;;;7.93;100.00;100985.91;5082697;28;20197;-69
2024/03/04 06:57:24;;;;;;;8.30;3.60;;;;;;;7.96;100.00;100982.72;5092200;27;20043;-69
2024/03/04 07:00:13;;;;;;;9.68;4.10;;;;;;;7.99;100.00;100993.06;5115672;27;20129;-69
2024/03/04 07:03:01;;;;;;;9.10;3.80;;;;;;;8.05;100.00;100983.13;5078566;28;20074;-66
2024/03/04 07:05:49;;;;;;;7.95;3.47;;;;;;;8.04;100.00;100987.72;5093099;28;20440;-68
2024/03/04 07:08:37;;;;;;;9.00;3.50;;;;;;;8.01;100.00;100988.22;5094554;28;20492;-69
2024/03/04 07:11:25;;;;;;;10.02;3.58;;;;;;;8.00;100.00;100994.72;5079678;28;20047;-69
2024/03/04 07:14:13;;;;;;;8.77;3.45;;;;;;;8.00;100.00;100994.72;5099650;27;20047;-69
2024/03/04 07:17:01;;;;;;;9.55;5.03;;;;;;;8.01;100.00;100995.53;5113864;28;20138;-69
2024/03/04 07:19:49;;;;;;;10.10;3.63;;;;;;;8.02;100.00;100995.28;5093251;28;20110;-69
2024/03/04 07:22:37;;;;;;;9.00;3.20;;;;;;;8.05;100.00;101000.22;5064832;28;20086;-68
2024/03/04 07:25:26;;;;;;;8.50;2.75;;;;;;;8.07;100.00;100997.25;5088036;28;20568;-69
2024/03/04 07:28:14;;;;;;;7.75;3.10;;;;;;;8.07;100.00;101002.69;5113382;28;20492;-69
2024/03/04 07:31:04;;;;;;;8.10;2.80;;;;;;;8.08;100.00;100994.31;4781198;28;10001312;-69
2024/03/04 07:33:52;;;;;;;11.88;3.83;;;;;;;8.11;100.00;100999.25;5087523;27;20097;-68
2024/03/04 07:36:40;;;;;;;10.57;3.08;;;;;;;8.11;100.00;100996.53;5078978;28;20070;-68
2024/03/04 07:39:28;;;;;;;10.07;3.08;;;;;;;8.11;100.00;101001.13;5096707;28;20557;-69
2024/03/04 07:42:16;;;;;;;9.05;3.00;;;;;;;8.14;100.00;101002.53;5068541;28;20075;-69
2024/03/04 07:45:06;;;;;;;8.27;2.85;;;;;;;8.16;100.00;101003.09;5080956;27;20514;-70
2024/03/04 07:47:55;;;;;;;8.25;2.97;;;;;;;8.17;100.00;101004.75;5093953;28;20079;-69
2024/03/04 07:50:43;;;;;;;10.27;3.80;;;;;;;8.16;100.00;101008.53;5095075;28;20040;-69
2024/03/04 07:53:31;;;;;;;8.45;3.05;;;;;;;8.19;100.00;101013.47;5097805;28;20073;-69
2024/03/04 07:56:19;;;;;;;7.43;3.00;;;;;;;8.17;100.00;101018.31;5109628;28;20107;-69
2024/03/04 07:59:07;;;;;;;8.95;3.00;;;;;;;8.15;100.00;101006.88;5110172;27;20415;-69
2024/03/04 08:01:55;;;;;;;7.60;3.00;;;;;;;8.15;100.00;101017.72;5088331;28;20048;-69
2024/03/04 08:04:44;;;;;;;8.40;3.15;;;;;;;8.11;100.00;101015.53;5126222;28;20365;-67
2024/03/04 08:07:32;;;;;;;10.02;3.40;;;;;;;8.14;100.00;101019.63;5109575;28;20453;-68
2024/03/04 08:10:20;;;;;;;8.82;3.30;;;;;;;8.18;100.00;101022.66;5084172;28;20411;-68
2024/03/04 08:13:08;;;;;;;9.27;3.10;;;;;;;8.20;100.00;101025.94;5079946;28;20055;-64
2024/03/04 08:15:56;;;;;;;9.55;3.40;;;;;;;8.24;100.00;101021.69;5110453;28;20058;-67
2024/03/04 08:18:44;;;;;;;10.65;3.40;;;;;;;8.24;100.00;101024.41;5095823;28;20068;-71
2024/03/04 08:21:32;;;;;;;10.50;3.60;;;;;;;8.23;100.00;101030.91;5089404;28;20228;-71
2024/03/04 08:24:20;;;;;;;9.43;3.60;;;;;;;8.20;100.00;101025.94;5093494;28;20111;-70
2024/03/04 08:27:08;;;;;;;9.52;3.42;;;;;;;8.16;100.00;101035.69;5093294;28;20560;-70
2024/03/04 08:29:56;;;;;;;9.85;3.10;;;;;;;8.17;100.00;101040.03;5089532;28;20204;-70
2024/03/04 08:32:44;;;;;;;9.20;3.45;;;;;;;8.22;100.00;101042.81;5067198;28;20089;-70
2024/03/04 08:35:32;;;;;;;9.20;3.20;;;;;;;8.29;100.00;101049.72;5097221;28;20472;-70
2024/03/04 08:38:20;;;;;;;9.73;3.40;;;;;;;8.26;100.00;101058.38;5103639;28;20165;-69
2024/03/04 08:41:08;;;;;;;9.23;3.42;;;;;;;8.25;100.00;101053.19;5109325;28;20422;-69
2024/03/04 08:43:56;;;;;;;10.45;3.45;;;;;;;8.23;100.00;101052.63;5100234;28;20054;-69
2024/03/04 08:46:44;;;;;;;9.80;3.15;;;;;;;8.24;100.00;101056.97;5080332;28;20103;-69
2024/03/04 08:49:32;;;;;;;9.80;3.60;;;;;;;8.18;100.00;101066.94;5107133;28;20044;-70
2024/03/04 08:52:20;;;;;;;9.65;3.13;;;;;;;8.19;100.00;101059.59;5091528;28;20047;-69
2024/03/04 08:55:09;;;;;;;6.88;3.20;;;;;;;8.19;100.00;101059.59;5098694;28;20521;-70
2024/03/04 08:57:57;;;;;;;5.53;2.80;;;;;;;8.21;100.00;101062.91;5096292;28;20172;-70
2024/03/04 09:00:45;;;;;;;7.95;2.92;;;;;;;8.22;100.00;101061.81;5110831;28;20122;-70
2024/03/04 09:03:33;;;;;;;6.10;2.20;;;;;;;8.30;100.00;101059.53;5129504;27;20047;-69
2024/03/04 09:06:21;;;;;;;8.73;2.33;;;;;;;8.36;100.00;101063.13;5103045;27;20082;-69
2024/03/04 09:09:11;;;;;;;8.07;2.75;;;;;;;8.40;100.00;101069.75;5063690;28;20137;-69
2024/03/04 09:12:03;;;;;;;10.73;2.65;;;;;;;8.43;100.00;101068.44;5052608;28;20055;-68
2024/03/04 09:14:51;;;;;;;9.05;2.70;;;;;;;8.50;100.00;101064.47;5115455;27;20085;-69
2024/03/04 09:17:40;;;;;;;8.77;2.97;;;;;;;8.51;100.00;101077.00;5132183;27;20054;-69
2024/03/04 09:20:28;;;;;;;7.95;2.47;;;;;;;8.48;100.00;101072.03;5131321;27;20058;-69
2024/03/04 09:23:16;;;;;;;5.50;2.80;;;;;;;8.45;100.00;101072.56;5081154;28;20185;-69
2024/03/04 09:26:08;;;;;;;6.90;2.70;;;;;;;8.47;100.00;101081.28;5111495;28;20247;-69
2024/03/04 09:28:56;;;;;;;9.57;2.95;;;;;;;8.51;100.00;101082.44;5110952;28;20079;-68
2024/03/04 09:31:44;;;;;;;7.30;2.40;;;;;;;8.55;100.00;101077.31;5110575;28;20048;-68
2024/03/04 09:34:32;;;;;;;7.03;2.70;;;;;;;8.55;100.00;101071.06;5111249;28;20039;-68
2024/03/04 09:37:20;;;;;;;6.57;2.67;;;;;;;8.55;100.00;101071.06;5096107;28;20052;-69
2024/03/04 09:40:10;;;;;;;7.35;2.67;;;;;;;8.54;100.00;101075.69;5090917;28;20040;-68
2024/03/04 09:42:58;;;;;;;6.18;2.60;;;;;;;8.51;100.00;101081.59;5115104;27;20051;-68
2024/03/04 09:45:49;;;;;;;5.00;2.33;;;;;;;8.59;100.00;101083.09;5117227;27;20047;-69
2024/03/04 09:48:41;;;;;;;4.40;2.05;;;;;;;8.68;100.00;101084.28;5117038;27;20043;-69
2024/03/04 09:51:31;;;;;;;5.35;2.05;;;;;;;8.72;100.00;101078.13;5103525;28;20089;-68
2024/03/04 09:54:19;;;;;;;4.90;2.25;;;;;;;8.78;100.00;101078.19;5083433;28;20181;-68
2024/03/04 09:57:07;;;;;;;5.50;2.15;;;;;;;8.80;100.00;101079.56;5081710;28;20128;-68
2024/03/04 09:59:59;;;;;;;6.35;2.38;;;;;;;8.81;100.00;101070.38;5110368;28;20176;-69
2024/03/04 10:02:47;;;;;;;4.40;1.80;;;;;;;8.81;100.00;101075.00;5085975;28;20047;-69
2024/03/04 10:05:35;;;;;;;9.98;2.65;;;;;;;8.81;100.00;101075.00;5116581;28;20138;-69
2024/03/04 10:08:26;;;;;;;9.43;2.50;;;;;;;8.85;100.00;101079.69;5116331;28;20043;-69
2024/03/04 10:11:14;;;;;;;6.82;2.30;;;;;;;8.89;100.00;101077.25;5118490;28;20139;-68
2024/03/04 10:14:03;;;;;;;7.15;2.20;;;;;;;8.92;100.00;101072.16;5095824;28;20169;-69
2024/03/04 10:16:51;;;;;;;7.63;2.40;;;;;;;8.95;100.00;101085.25;5081344;28;20189;-69
2024/03/04 10:19:39;;;;;;;5.88;2.28;;;;;;;8.95;100.00;101087.97;5097036;28;20107;-68
2024/03/04 10:22:38;;;;;;;4.28;1.83;;;;;;;8.95;100.00;101093.41;5110083;28;20115;-69
2024/03/04 10:25:27;;;;;;;6.07;2.05;;;;;;;8.95;100.00;101087.97;5100658;28;20088;-68
2024/03/04 10:28:15;;;;;;;3.65;1.90;;;;;;;8.98;100.00;101086.63;5101014;28;20055;-68
2024/03/04 10:31:08;;;;;;;2.67;1.80;;;;;;;9.02;100.00;101095.09;5086209;28;20131;-68
2024/03/04 10:33:56;;;;;;;6.18;2.28;;;;;;;9.04;100.00;101092.94;5087134;28;20070;-69
2024/03/04 10:36:50;;;;;;;3.67;2.00;;;;;;;9.02;100.00;101098.66;5115632;28;20044;-69
2024/03/04 10:39:38;;;;;;;7.00;2.00;;;;;;;8.99;100.00;101093.69;5100565;28;20062;-68
2024/03/04 10:42:26;;;;;;;4.00;1.90;;;;;;;9.01;100.00;101109.78;5080613;28;20070;-68
2024/03/04 10:45:15;;;;;;;6.03;2.30;;;;;;;9.04;100.00;101096.50;5079391;28;20123;-68
2024/03/04 10:48:04;;;;;;;4.75;2.30;;;;;;;9.07;100.00;101103.34;5092918;28;20503;-69
2024/03/04 10:50:54;;;;;;;3.83;2.03;;;;;;;9.08;100.00;101096.81;5093696;28;20043;-68
2024/03/04 10:53:45;;;;;;;6.03;2.00;;;;;;;9.08;100.00;101096.81;5103483;28;20043;-68
2024/03/04 10:56:44;;;;;;;5.32;2.17;;;;;;;9.12;100.00;101092.53;5108191;27;20035;-73
2024/03/04 10:59:34;;;;;;;;;;;;;;;9.16;100.00;101099.09;5102279;28;20044;-69
2024/03/04 11:02:39;;;;;;;5.28;2.25;;;;;;;9.20;100.00;101097.53;5069165;28;20006;-69
2024/03/04 11:05:31;;;;;;;5.05;2.00;;;;;;;9.21;100.00;101096.44;5092938;28;20047;-68
2024/03/04 11:08:35;;;;;;;5.53;2.03;;;;;;;9.25;100.00;101097.59;5093208;28;20067;-69
2024/03/04 11:11:38;;;;;;;6.53;2.50;;;;;;;9.25;100.00;101096.78;5075194;27;20040;-69
2024/03/04 11:14:33;;;;;;;5.35;2.10;;;;;;;9.27;99.81;101097.34;5069706;28;20055;-69
2024/03/04 11:17:30;;;;;;;4.70;2.45;;;;;;;9.33;100.00;101097.16;5066021;28;20560;-69
2024/03/04 11:20:20;;;;;;;5.88;2.30;;;;;;;9.31;96.57;101109.38;5068875;28;20128;-69
2024/03/04 11:23:09;;;;;;;4.85;2.30;;;;;;;9.31;97.06;101099.31;5083990;28;20075;-69
2024/03/04 11:25:58;;;;;;;4.10;2.20;;;;;;;9.32;98.88;101098.22;5113707;28;20406;-69
2024/03/04 11:28:47;;;;;;;3.53;2.00;;;;;;;9.37;98.33;101095.56;5114633;27;20123;-70
2024/03/04 11:31:35;;;;;;;2.75;1.80;;;;;;;9.35;95.39;101096.91;5080073;27;20522;-69
2024/03/04 11:34:23;;;;;;;7.90;2.58;;;;;;;9.37;93.50;101100.19;5076893;28;20048;-69
2024/03/04 11:37:16;;;;;;;4.90;2.50;;;;;;;9.43;92.25;101098.34;5088294;28;20055;-69
2024/03/04 11:40:13;;;;;;;4.35;2.50;;;;;;;9.44;93.61;101098.09;4388544;28;10000817;-69
2024/03/04 11:43:01;;;;;;;4.63;2.45;;;;;;;9.49;93.06;101097.34;5055425;28;20179;-69
2024/03/04 11:45:49;;;;;;;6.85;2.42;;;;;;;9.51;92.01;101103.34;5067988;28;20049;-70
2024/03/04 11:48:37;;;;;;;6.57;2.80;;;;;;;9.52;92.38;101097.63;5061092;28;20060;-69
2024/03/04 11:51:44;;;;;;;5.47;2.40;;;;;;;9.56;93.16;101103.41;5087682;28;20044;-70
2024/03/04 11:54:35;;;;;;;5.60;2.65;;;;;;;9.60;93.37;101102.66;5074748;28;20165;-70
2024/03/04 11:57:26;;;;;;;7.13;2.60;;;;;;;9.64;93.68;101100.22;5074988;28;20055;-69
2024/03/04 12:00:15;;;;;;;3.33;2.22;;;;;;;9.68;91.62;101106.00;5061832;28;20102;-69
2024/03/04 12:03:04;;;;;;;3.20;1.90;;;;;;;9.64;88.51;101104.84;5069067;28;20048;-69
2024/03/04 12:05:52;;;;;;;5.90;2.30;;;;;;;9.62;88.33;101102.41;5074605;28;20059;-69
2024/03/04 12:08:40;;;;;;;4.65;2.35;;;;;;;9.66;89.85;101119.84;5076702;28;20139;-68
2024/03/04 12:11:48;;;;;;;4.43;2.40;;;;;;;9.70;89.17;101114.72;5077776;28;20067;-70
2024/03/04 12:14:36;;;;;;;5.30;2.20;;;;;;;9.73;88.90;101104.16;5068429;28;20052;-69
2024/03/04 12:17:24;;;;;;;3.35;2.15;;;;;;;9.76;90.10;101114.50;5074857;28;20044;-68
2024/03/04 12:20:13;;;;;;;3.90;2.20;;;;;;;9.76;89.41;101100.91;5088103;28;20062;-68
2024/03/04 12:23:05;;;;;;;5.07;2.60;;;;;;;9.78;89.36;101106.91;5091962;28;20067;-69
2024/03/04 12:25:53;;;;;;;7.40;2.47;;;;;;;9.80;89.06;101101.22;5086559;28;20052;-67
2024/03/04 12:28:41;;;;;;;4.88;2.58;;;;;;;9.80;88.95;101099.31;5113533;28;20040;-68
2024/03/04 12:31:29;;;;;;;4.30;2.42;;;;;;;9.79;88.57;101094.97;5085141;28;20028;-70
2024/03/04 12:34:20;;;;;;;6.07;2.63;;;;;;;9.82;88.70;101105.34;5066254;28;20044;-70
2024/03/04 12:37:08;;;;;;;8.98;2.55;;;;;;;9.86;89.05;101081.16;5050905;28;20080;-69
2024/03/04 12:39:56;;;;;;;4.80;2.70;;;;;;;9.92;90.46;101090.19;5057140;28;20052;-69
2024/03/04 12:42:45;;;;;;;7.35;2.58;;;;;;;9.96;87.30;101094.06;5091994;28;20052;-69
2024/03/04 12:45:34;;;;;;;4.97;2.67;;;;;;;9.96;85.03;101083.97;5083480;28;20040;-69
2024/03/04 12:48:24;;;;;;;4.28;2.50;;;;;;;9.97;85.01;101085.63;5087255;28;20036;-69
2024/03/04 12:51:14;;;;;;;5.50;2.90;;;;;;;9.96;84.28;101088.59;5069390;28;20408;-69
2024/03/04 12:54:04;;;;;;;2.75;2.33;;;;;;;9.95;84.96;101086.94;5077555;28;20127;-69
2024/03/04 12:56:53;;;;;;;5.30;2.80;;;;;;;9.95;86.10;101093.22;5077139;28;20047;-69
2024/03/04 12:59:45;;;;;;;4.65;3.03;;;;;;;9.96;87.34;101080.44;5068563;28;20093;-69
2024/03/04 13:02:33;;;;;;;7.18;2.92;;;;;;;9.96;87.25;101089.44;5091276;28;20040;-68
2024/03/04 13:05:21;;;;;;;6.38;2.97;;;;;;;10.00;87.39;101082.38;5096480;28;20132;-69